البصرة, العراق

04:49 PM AST on سبتهبر 30, 2014 (GMT +0300)
Basrah International | Change Station
CLOSE
Current Station
Airport
Location: Basrah,
Elevation: 7 ft
Nearby Weather Stations

Elev 7 ft 30.52 °N, 47.78 °E | Updated 49 minutes ago

Clear
صافية
104 °F
Feels Like 104 °F
N
9
ريح متغير ريح from NNW

هذا اليوم
High -- | Low -- °F
--% Chance of Precip.
Yesterday
High -- | Low -- °F
Precip. -- في
5:41 AM 5:35 PM
الهلال الأول, 37% visible
الضغط 29.77 في
وضوح الرؤية 4.3 أميال
سحابات
نقطة الندى 45 °F
الرطوبة 13%
Rainfall 0.00 في
عمق الثلج Not available.
الأشعة فوق البنفسجية Not available.
Pollen Not available.
جودة الهواء Not available.
Flu Activity Not available.
METAR ORMM 301300Z 34008KT 7000 NSC 40/07 Q1008 NOSIG

More Conditions Fewer Conditions

الضغط 29.77 في
وضوح الرؤية 4.3 أميال
سحابات
نقطة الندى 45 °F
الرطوبة 13%
Rainfall 0.00 في
عمق الثلج Not available.
الأشعة فوق البنفسجية Not available.
Pollen Not available.
جودة الهواء Not available.
Flu Activity Not available.
METAR ORMM 301300Z 34008KT 7000 NSC 40/07 Q1008 NOSIG

More Conditions Fewer Conditions

10-Day Weather Forecast

Almanac

علم الفلك

Sep. 30, 2014 Rise Set
Actual Time 5:41 AM AST 5:35 PM AST
Civil Twilight 5:17 AM AST 5:59 PM AST
Nautical Twilight 4:49 AM AST 6:27 PM AST
Astronomical Twilight 4:21 AM AST 6:55 PM AST
قمر 11:10 AM AST 10:02 PM AST
Length Of Visible Light 12h 42m
طول الیوم
11h 54m
Tomorrow will be 1m 50s shorter.
الهلال الأول, 37% of the Moon is Illuminated
هذا اليوم
الهلال الأول
Oct 1
الربع الاول
Oct 8
بدر
Oct 15
الربع الآخر
Oct 23
New

Yesterday's Extremes

Country Highs Country Lows

Community

WunderPhotos

Upload Photos

1,757,636 photos uploaded!

Nearby

جودة الهواء

Not available.

عمق الثلج

Not available.

Earthquake Activity

City Distance Mag. Time & Date
No recent earthquake activity has been reported nearby.
Minimum magnitude displayed is 2.5.

Coastal Water Temperatures

مكان درجات الحرارة
No Stations Reporting

Nearby Weather Stations